Terminal Aerodrome Forecast
Issued by NWS

Current Version | Previous Version | Graphics & Text | Print | Product List | Glossary On
Versions: 1 2 3 4 5 6 7 8 9 10 11 12 13 14 15 16 17 18 19 20 21 22 23 24 25 26 27 28 29 30 31 32 33 34 35 36 37
000
FTUS41 KRNK 200538
TAFLWB
TAF
KLWB 200538Z 2006/2106 30006KT P6SM FEW045
     FM200900 00000KT 3SM BR BKN012
     FM201300 29003KT P6SM SKC
     FM210000 VRB03KT P6SM OVC250=

USA.gov is the U.S. government's official web portal to all federal, state and local government web resources and services.